createdAt,value
2018-09-12T00:01:10.153Z,101534.39
2018-09-12T00:03:38.748Z,101531.34
2018-09-12T00:06:13.870Z,101539.33
2018-09-12T00:08:42.694Z,101534.11
2018-09-12T00:11:11.292Z,101531.34
2018-09-12T00:13:39.912Z,101540.28
2018-09-12T00:16:08.562Z,101540.38
2018-09-12T00:18:37.139Z,101538.13
2018-09-12T00:21:05.995Z,101535.89
2018-09-12T00:23:34.564Z,101538.13
2018-09-12T00:26:03.433Z,101535.89
2018-09-12T00:28:32.070Z,101537.05
2018-09-12T00:31:00.664Z,101539.56
2018-09-12T00:33:29.252Z,101533.47
2018-09-12T00:35:57.869Z,101535.95
2018-09-12T00:38:26.444Z,101525.70
2018-09-12T00:40:55.043Z,101529.63
2018-09-12T00:43:23.633Z,101527.92
2018-09-12T00:45:52.242Z,101530.41
2018-09-12T00:48:20.832Z,101533.12
2018-09-12T00:50:49.451Z,101530.03
2018-09-12T00:53:18.017Z,101527.58
2018-09-12T00:55:46.641Z,101525.64
2018-09-12T00:58:15.220Z,101526.19
2018-09-12T01:00:43.822Z,101523.42
2018-09-12T01:03:12.427Z,101520.09
2018-09-12T01:05:41.919Z,101518.19
2018-09-12T01:08:11.822Z,101515.16
2018-09-12T01:10:40.483Z,101512.09
2018-09-12T01:13:09.542Z,101511.55
2018-09-12T01:15:38.163Z,101510.16
2018-09-12T01:18:06.814Z,101518.94
2018-09-12T01:20:35.390Z,101513.89
2018-09-12T01:23:03.995Z,101514.70
2018-09-12T01:25:32.582Z,101512.66
2018-09-12T01:28:01.204Z,101519.55
2018-09-12T01:30:29.773Z,101516.47
2018-09-12T01:32:58.377Z,101514.50
2018-09-12T01:35:26.941Z,101516.98
2018-09-12T01:37:55.531Z,101525.88
2018-09-12T01:40:24.109Z,101522.88
2018-09-12T01:42:52.721Z,101523.95
2018-09-12T01:45:21.292Z,101521.98
2018-09-12T01:47:49.913Z,101524.20
2018-09-12T01:50:18.473Z,101524.75
2018-09-12T01:52:47.655Z,101516.44
2018-09-12T01:55:16.516Z,101511.13
2018-09-12T01:57:45.153Z,101510.84
2018-09-12T02:00:16.896Z,101506.62
2018-09-12T02:02:46.160Z,101506.27
2018-09-12T02:05:14.792Z,101497.06
2018-09-12T02:07:43.401Z,101502.52
2018-09-12T02:10:13.239Z,101497.73
2018-09-12T02:12:41.836Z,101494.91
2018-09-12T02:15:10.407Z,101500.16
2018-09-12T02:17:38.996Z,101494.27
2018-09-12T02:20:07.627Z,101491.72
2018-09-12T02:22:36.218Z,101498.63
2018-09-12T02:25:04.882Z,101505.48
2018-09-12T02:27:33.473Z,101505.13
2018-09-12T02:30:02.035Z,101506.45
2018-09-12T02:32:30.604Z,101506.72
2018-09-12T02:34:59.184Z,101502.21
2018-09-12T02:37:27.784Z,101503.59
2018-09-12T02:39:56.456Z,101498.55
2018-09-12T02:42:25.315Z,101495.77
2018-09-12T02:44:53.906Z,101495.77
2018-09-12T02:47:27.848Z,101500.47
2018-09-12T02:49:56.421Z,101498.55
2018-09-12T02:52:25.018Z,101494.39
2018-09-12T02:54:53.598Z,101500.77
2018-09-12T02:57:22.180Z,101503.80
2018-09-12T02:59:50.818Z,101499.34
2018-09-12T03:02:19.450Z,101504.02
2018-09-12T03:04:48.017Z,101504.34
2018-09-12T03:07:16.626Z,101508.23
2018-09-12T03:09:45.200Z,101507.98
2018-09-12T03:12:14.164Z,101501.45
2018-09-12T03:14:42.740Z,101513.84
2018-09-12T03:17:12.002Z,101507.61
2018-09-12T03:19:40.573Z,101512.76
2018-09-12T03:22:09.176Z,101505.33
2018-09-12T03:24:37.867Z,101506.19
2018-09-12T03:27:06.473Z,101515.12
2018-09-12T03:29:35.058Z,101508.30
2018-09-12T03:32:03.693Z,101511.23
2018-09-12T03:34:32.277Z,101509.81
2018-09-12T03:37:00.837Z,101506.42
2018-09-12T03:39:29.433Z,101506.67
2018-09-12T03:41:58.007Z,101508.27
2018-09-12T03:44:26.619Z,101509.23
2018-09-12T03:46:55.209Z,101507.98
2018-09-12T03:49:23.797Z,101507.31
2018-09-12T03:51:52.964Z,101498.89
2018-09-12T03:54:21.542Z,101503.20
2018-09-12T03:56:50.089Z,101499.44
2018-09-12T03:59:18.669Z,101508.72
2018-09-12T04:01:47.232Z,101507.05
2018-09-12T04:04:15.824Z,101498.38
2018-09-12T04:06:44.379Z,101496.92
2018-09-12T04:09:12.961Z,101496.24
2018-09-12T04:11:41.530Z,101498.33
2018-09-12T04:14:10.122Z,101487.20
2018-09-12T04:16:38.735Z,101489.44
2018-09-12T04:19:07.297Z,101483.75
2018-09-12T04:21:35.867Z,101496.45
2018-09-12T04:24:04.490Z,101495.98
2018-09-12T04:26:33.053Z,101499.52
2018-09-12T04:29:01.652Z,101502.20
2018-09-12T04:31:30.227Z,101503.81
2018-09-12T04:33:58.809Z,101512.30
2018-09-12T04:36:27.389Z,101508.41
2018-09-12T04:38:55.955Z,101508.86
2018-09-12T04:41:24.507Z,101508.23
2018-09-12T04:43:53.146Z,101510.09
2018-09-12T04:46:21.701Z,101519.02
2018-09-12T04:48:50.309Z,101530.84
2018-09-12T04:51:18.858Z,101524.09
2018-09-12T04:53:47.433Z,101531.52
2018-09-12T04:56:16.007Z,101525.47
2018-09-12T04:58:44.584Z,101529.06
2018-09-12T05:01:13.144Z,101532.66
2018-09-12T05:03:41.715Z,101548.91
2018-09-12T05:06:10.275Z,101557.33
2018-09-12T05:08:38.846Z,101553.73
2018-09-12T05:11:07.422Z,101569.92
2018-09-12T05:13:36.001Z,101570.42
2018-09-12T05:16:04.707Z,101571.72
2018-09-12T05:18:33.311Z,101567.82
2018-09-12T05:21:01.885Z,101573.88
2018-09-12T05:23:30.487Z,101580.61
2018-09-12T05:25:59.039Z,101574.05
2018-09-12T05:28:27.681Z,101569.38
2018-09-12T05:30:56.245Z,101557.11
2018-09-12T05:33:25.104Z,101562.30
2018-09-12T05:35:53.670Z,101566.44
2018-09-12T05:38:22.283Z,101565.59
2018-09-12T05:40:50.877Z,101565.67
2018-09-12T05:43:19.456Z,101566.41
2018-09-12T05:45:48.049Z,101564.27
2018-09-12T05:48:16.689Z,101568.41
2018-09-12T05:50:45.291Z,101580.68
2018-09-12T05:53:13.850Z,101576.48
2018-09-12T05:55:42.460Z,101577.42
2018-09-12T05:58:11.013Z,101579.84
2018-09-12T06:00:39.617Z,101571.51
2018-09-12T06:03:08.193Z,101587.48
2018-09-12T06:05:36.790Z,101588.98
2018-09-12T06:08:05.390Z,101596.72
2018-09-12T06:10:33.986Z,101601.40
2018-09-12T06:13:02.569Z,101598.34
2018-09-12T06:15:31.181Z,101602.66
2018-09-12T06:17:59.755Z,101583.94
2018-09-12T06:20:28.344Z,101574.95
2018-09-12T06:22:56.921Z,101572.50
2018-09-12T06:25:25.517Z,101576.20
2018-09-12T06:27:54.125Z,101568.36
2018-09-12T06:30:22.724Z,101570.33
2018-09-12T06:32:51.292Z,101578.47
2018-09-12T06:35:19.885Z,101579.41
2018-09-12T06:37:48.480Z,101572.33
2018-09-12T06:40:17.083Z,101577.06
2018-09-12T06:42:45.670Z,101585.47
2018-09-12T06:45:14.273Z,101578.48
2018-09-12T06:47:42.844Z,101584.22
2018-09-12T06:50:11.436Z,101606.77
2018-09-12T06:52:40.003Z,101604.02
2018-09-12T06:55:08.597Z,101613.13
2018-09-12T06:57:37.160Z,101615.03
2018-09-12T07:00:06.300Z,101614.61
2018-09-12T07:02:34.874Z,101607.20
2018-09-12T07:05:03.560Z,101611.51
2018-09-12T07:07:32.172Z,101619.87
2018-09-12T07:10:00.766Z,101627.06
2018-09-12T07:12:29.411Z,101620.00
2018-09-12T07:14:58.000Z,101622.86
2018-09-12T07:17:26.558Z,101622.42
2018-09-12T07:19:55.135Z,101621.66
2018-09-12T07:22:23.707Z,101633.44
2018-09-12T07:24:53.052Z,101631.77
2018-09-12T07:27:21.630Z,101638.66
2018-09-12T07:29:50.194Z,101641.41
2018-09-12T07:32:18.775Z,101642.67
2018-09-12T07:34:47.367Z,101645.30
2018-09-12T07:37:15.932Z,101644.88
2018-09-12T07:39:44.514Z,101641.60
2018-09-12T07:42:13.097Z,101636.94
2018-09-12T07:44:41.648Z,101632.31
2018-09-12T07:47:10.238Z,101639.27
2018-09-12T07:49:38.832Z,101647.53
2018-09-12T07:52:07.436Z,101661.52
2018-09-12T07:54:35.989Z,101656.77
2018-09-12T07:57:04.580Z,101639.39
2018-09-12T07:59:33.156Z,101633.61
2018-09-12T08:02:01.754Z,101627.54
2018-09-12T08:04:30.349Z,101625.47
2018-09-12T08:06:58.936Z,101610.34
2018-09-12T08:09:27.506Z,101619.52
2018-09-12T08:11:56.115Z,101628.70
2018-09-12T08:14:24.680Z,101623.78
2018-09-12T08:16:53.299Z,101624.50
2018-09-12T08:19:21.882Z,101625.73
2018-09-12T08:21:50.480Z,101629.89
2018-09-12T08:24:19.041Z,101625.00
2018-09-12T08:26:47.695Z,101611.27
2018-09-12T08:29:16.271Z,101621.88
2018-09-12T08:31:44.864Z,101622.69
2018-09-12T08:34:13.434Z,101620.21
2018-09-12T08:36:42.038Z,101625.06
2018-09-12T08:39:10.999Z,101631.86
2018-09-12T08:41:39.596Z,101647.30
2018-09-12T08:44:08.620Z,101646.80
2018-09-12T08:46:37.258Z,101657.91
2018-09-12T08:49:05.902Z,101669.94
2018-09-12T08:51:34.504Z,101663.95
2018-09-12T08:54:03.087Z,101665.56
2018-09-12T08:56:31.684Z,101670.14
2018-09-12T08:59:00.258Z,101681.27
2018-09-12T09:01:28.961Z,101688.77
2018-09-12T09:03:57.522Z,101698.44
2018-09-12T09:06:26.191Z,101701.02
2018-09-12T09:08:54.788Z,101706.52
2018-09-12T09:11:23.404Z,101701.12
2018-09-12T09:13:52.027Z,101702.67
2018-09-12T09:16:20.628Z,101709.38
2018-09-12T09:18:49.215Z,101704.95
2018-09-12T09:21:17.800Z,101704.44
2018-09-12T09:23:46.415Z,101707.84
2018-09-12T09:26:15.024Z,101710.36
2018-09-12T09:28:43.610Z,101707.50
2018-09-12T09:31:12.214Z,101712.72
2018-09-12T09:33:40.791Z,101716.89
2018-09-12T09:36:09.391Z,101722.41
2018-09-12T09:38:37.974Z,101724.75
2018-09-12T09:41:06.743Z,101726.02
2018-09-12T09:43:35.301Z,101729.42
2018-09-12T09:46:03.884Z,101730.88
2018-09-12T09:48:32.519Z,101737.22
2018-09-12T09:51:01.124Z,101734.88
2018-09-12T09:53:29.721Z,101742.73
2018-09-12T09:55:58.352Z,101748.16
2018-09-12T09:58:27.024Z,101758.67
2018-09-12T10:01:00.631Z,101756.45
2018-09-12T10:03:34.590Z,101745.34
2018-09-12T10:06:08.285Z,101752.52
2018-09-12T10:08:42.006Z,101749.89
2018-09-12T10:11:10.601Z,101754.32
2018-09-12T10:13:39.188Z,101746.23
2018-09-12T10:16:07.789Z,101735.99
2018-09-12T10:18:36.393Z,101718.25
2018-09-12T10:21:04.999Z,101725.45
2018-09-12T10:23:33.620Z,101727.45
2018-09-12T10:26:02.192Z,101724.91
2018-09-12T10:28:30.794Z,101736.03
2018-09-12T10:30:59.363Z,101739.48
2018-09-12T10:33:27.975Z,101745.39
2018-09-12T10:35:56.556Z,101755.84
2018-09-12T10:38:25.147Z,101746.14
2018-09-12T10:40:53.757Z,101745.59
2018-09-12T10:43:22.362Z,101744.39
2018-09-12T10:45:50.940Z,101731.14
2018-09-12T10:48:19.559Z,101727.34
2018-09-12T10:50:48.124Z,101728.31
2018-09-12T10:53:16.742Z,101727.75
2018-09-12T10:55:45.311Z,101730.56
2018-09-12T10:58:13.915Z,101733.84
2018-09-12T11:00:42.491Z,101737.12
2018-09-12T11:03:11.077Z,101741.40
2018-09-12T11:05:39.658Z,101734.16
2018-09-12T11:08:08.264Z,101730.22
2018-09-12T11:10:36.869Z,101739.38
2018-09-12T11:13:05.502Z,101751.02
2018-09-12T11:15:34.074Z,101747.00
2018-09-12T11:18:02.655Z,101748.05
2018-09-12T11:20:31.237Z,101758.04
2018-09-12T11:22:59.853Z,101763.42
2018-09-12T11:25:28.454Z,101765.64
2018-09-12T11:27:57.056Z,101779.00
2018-09-12T11:30:25.634Z,101784.89
2018-09-12T11:32:54.221Z,101784.45
2018-09-12T11:35:22.766Z,101787.56
2018-09-12T11:37:51.365Z,101791.13
2018-09-12T11:40:19.911Z,101780.25
2018-09-12T11:42:48.493Z,101773.19
2018-09-12T11:45:17.051Z,101778.16
2018-09-12T11:47:45.634Z,101782.02
2018-09-12T11:50:14.197Z,101791.77
2018-09-12T11:52:42.806Z,101791.30
2018-09-12T11:55:11.360Z,101789.91
2018-09-12T11:57:39.943Z,101785.70
2018-09-12T12:00:08.553Z,101771.91
2018-09-12T12:02:37.170Z,101771.91
2018-09-12T12:05:05.814Z,101778.38
2018-09-12T12:07:34.373Z,101777.00
2018-09-12T12:10:03.008Z,101768.52
2018-09-12T12:12:31.586Z,101774.05
2018-09-12T12:15:00.168Z,101783.33
2018-09-12T12:17:28.725Z,101775.67
2018-09-12T12:19:57.314Z,101784.19
2018-09-12T12:22:25.878Z,101786.44
2018-09-12T12:24:54.477Z,101790.13
2018-09-12T12:27:23.065Z,101791.00
2018-09-12T12:29:51.650Z,101781.59
2018-09-12T12:32:20.287Z,101772.34
2018-09-12T12:34:48.877Z,101780.41
2018-09-12T12:37:17.439Z,101789.37
2018-09-12T12:39:46.029Z,101805.55
2018-09-12T12:42:14.608Z,101806.94
2018-09-12T12:44:43.203Z,101807.25
2018-09-12T12:47:12.751Z,101804.93
2018-09-12T12:49:41.379Z,101804.52
2018-09-12T12:52:10.003Z,101809.17
2018-09-12T12:54:38.651Z,101799.66
2018-09-12T12:57:07.372Z,101799.10
2018-09-12T12:59:35.968Z,101806.13
2018-09-12T13:02:04.531Z,101815.09
2018-09-12T13:04:33.126Z,101813.63
2018-09-12T13:07:01.723Z,101823.73
2018-09-12T13:09:30.296Z,101829.33
2018-09-12T13:11:58.861Z,101822.68
2018-09-12T13:14:27.463Z,101818.42
2018-09-12T13:16:56.030Z,101818.52
2018-09-12T13:19:24.617Z,101820.75
2018-09-12T13:21:53.245Z,101821.77
2018-09-12T13:24:21.788Z,101828.08
2018-09-12T13:26:50.344Z,101820.78
2018-09-12T13:29:18.983Z,101820.73
2018-09-12T13:31:47.540Z,101825.27
2018-09-12T13:34:16.144Z,101824.15
2018-09-12T13:36:44.735Z,101822.59
2018-09-12T13:39:15.986Z,101828.48
2018-09-12T13:41:44.553Z,101828.16
2018-09-12T13:44:13.141Z,101824.63
2018-09-12T13:46:41.705Z,101830.02
2018-09-12T13:49:10.291Z,101832.75
2018-09-12T13:51:38.868Z,101816.89
2018-09-12T13:54:07.502Z,101827.76
2018-09-12T13:56:36.119Z,101834.16
2018-09-12T13:59:04.753Z,101828.22
2018-09-12T14:01:33.330Z,101827.52
2018-09-12T14:04:01.942Z,101836.13
2018-09-12T14:06:30.521Z,101832.17
2018-09-12T14:08:59.276Z,101835.53
2018-09-12T14:11:27.795Z,101839.91
2018-09-12T14:13:56.424Z,101838.19
2018-09-12T14:16:25.020Z,101828.84
2018-09-12T14:18:53.593Z,101836.84
2018-09-12T14:21:22.186Z,101843.63
2018-09-12T14:23:50.768Z,101835.60
2018-09-12T14:26:19.380Z,101831.77
2018-09-12T14:28:48.026Z,101820.96
2018-09-12T14:31:16.689Z,101833.36
2018-09-12T14:33:45.265Z,101834.91
2018-09-12T14:36:13.848Z,101834.16
2018-09-12T14:38:42.508Z,101834.09
2018-09-12T14:41:11.102Z,101838.36
2018-09-12T14:43:39.671Z,101848.56
2018-09-12T14:46:08.626Z,101847.23
2018-09-12T14:48:37.205Z,101847.10
2018-09-12T14:51:06.033Z,101843.17
2018-09-12T14:53:34.609Z,101850.70
2018-09-12T14:56:03.201Z,101845.72
2018-09-12T14:58:31.816Z,101849.80
2018-09-12T15:01:00.412Z,101843.73
2018-09-12T15:03:28.985Z,101857.17
2018-09-12T15:05:57.583Z,101848.30
2018-09-12T15:08:26.165Z,101843.28
2018-09-12T15:10:54.763Z,101843.28
2018-09-12T15:13:23.345Z,101848.56
2018-09-12T15:15:51.956Z,101848.13
2018-09-12T15:18:20.543Z,101862.20
2018-09-12T15:20:49.148Z,101860.46
2018-09-12T15:23:17.724Z,101857.21
2018-09-12T15:25:46.325Z,101864.16
2018-09-12T15:28:14.976Z,101863.63
2018-09-12T15:30:43.574Z,101865.73
2018-09-12T15:33:12.142Z,101862.80
2018-09-12T15:35:40.740Z,101864.41
2018-09-12T15:38:09.321Z,101866.41
2018-09-12T15:40:37.914Z,101866.53
2018-09-12T15:43:06.740Z,101867.30
2018-09-12T15:45:35.337Z,101867.59
2018-09-12T15:48:03.910Z,101866.22
2018-09-12T15:50:32.506Z,101873.11
2018-09-12T15:53:01.086Z,101881.61
2018-09-12T15:55:29.678Z,101893.90
2018-09-12T15:57:58.285Z,101894.43
2018-09-12T16:00:26.895Z,101895.88
2018-09-12T16:02:55.460Z,101902.06
2018-09-12T16:05:24.063Z,101891.77
2018-09-12T16:07:52.647Z,101891.93
2018-09-12T16:10:21.235Z,101893.27
2018-09-12T16:12:49.801Z,101887.20
2018-09-12T16:15:18.455Z,101894.17
2018-09-12T16:17:47.035Z,101893.95
2018-09-12T16:20:15.603Z,101896.83
2018-09-12T16:22:44.341Z,101894.39
2018-09-12T16:25:12.913Z,101898.11
2018-09-12T16:27:41.532Z,101904.27
2018-09-12T16:30:10.101Z,101909.05
2018-09-12T16:32:38.761Z,101916.55
2018-09-12T16:35:07.315Z,101916.24
2018-09-12T16:37:35.911Z,101909.68
2018-09-12T16:43:00.469Z,101899.55
2018-09-12T16:45:29.048Z,101901.02
2018-09-12T16:47:57.654Z,101901.37
2018-09-12T16:50:26.246Z,101902.93
2018-09-12T16:52:54.869Z,101905.98
2018-09-12T16:55:23.441Z,101908.43
2018-09-12T16:57:52.033Z,101913.09
2018-09-12T17:00:20.625Z,101911.49
2018-09-12T17:02:49.263Z,101914.24
2018-09-12T17:05:17.837Z,101918.05
2018-09-12T17:07:46.435Z,101924.63
2018-09-12T17:10:14.997Z,101912.96
2018-09-12T17:12:43.593Z,101912.43
2018-09-12T17:15:12.177Z,101913.49
2018-09-12T17:17:40.769Z,101919.74
2018-09-12T17:20:09.372Z,101924.90
2018-09-12T17:22:37.961Z,101922.55
2018-09-12T17:25:06.581Z,101927.70
2018-09-12T17:27:35.216Z,101925.48
2018-09-12T17:30:03.837Z,101929.48
2018-09-12T17:32:32.485Z,101922.83
2018-09-12T17:35:01.014Z,101914.80
2018-09-12T17:37:29.597Z,101914.86
2018-09-12T17:39:58.160Z,101912.55
2018-09-12T17:42:26.770Z,101918.76
2018-09-12T17:44:55.384Z,101930.16
2018-09-12T17:47:23.987Z,101933.84
2018-09-12T17:49:52.577Z,101933.20
2018-09-12T17:52:21.171Z,101929.80
2018-09-12T17:54:49.733Z,101934.67
2018-09-12T17:57:18.321Z,101946.69
2018-09-12T17:59:46.969Z,101950.50
2018-09-12T18:02:15.611Z,101947.44
2018-09-12T18:04:44.182Z,101958.44
2018-09-12T18:07:12.780Z,101958.09
2018-09-12T18:09:41.382Z,101965.30
2018-09-12T18:12:09.979Z,101973.95
2018-09-12T18:14:38.554Z,101982.91
2018-09-12T18:17:07.145Z,101978.47
2018-09-12T18:19:35.719Z,101978.25
2018-09-12T18:22:04.335Z,101970.53
2018-09-12T18:24:33.636Z,101975.72
2018-09-12T18:27:02.329Z,101992.42
2018-09-12T18:29:31.042Z,101998.09
2018-09-12T18:31:59.626Z,102000.22
2018-09-12T18:34:28.248Z,101988.56
2018-09-12T18:36:56.882Z,101988.25
2018-09-12T18:39:25.523Z,101977.64
2018-09-12T18:41:54.068Z,101981.63
2018-09-12T18:44:22.635Z,101988.45
2018-09-12T18:46:51.249Z,101985.77
2018-09-12T18:49:19.795Z,101988.20
2018-09-12T18:51:48.372Z,102003.70
2018-09-12T18:54:16.949Z,102007.91
2018-09-12T18:56:45.511Z,102004.52
2018-09-12T18:59:14.082Z,101999.13
2018-09-12T19:01:42.632Z,101997.69
2018-09-12T19:04:11.205Z,101994.62
2018-09-12T19:06:39.808Z,101984.16
2018-09-12T19:09:09.990Z,101990.50
2018-09-12T19:11:38.545Z,101992.19
2018-09-12T19:14:07.135Z,102000.86
2018-09-12T19:16:35.700Z,102002.09
2018-09-12T19:19:04.293Z,102003.64
2018-09-12T19:21:32.866Z,102009.66
2018-09-12T19:24:01.493Z,101998.81
2018-09-12T19:26:30.137Z,101998.81
2018-09-12T19:28:58.728Z,101995.61
2018-09-12T19:31:27.310Z,102003.19
2018-09-12T19:33:55.949Z,101996.74
2018-09-12T19:36:24.503Z,101996.29
2018-09-12T19:38:53.114Z,102000.48
2018-09-12T19:41:21.681Z,102004.64
2018-09-12T19:43:50.270Z,102004.39
2018-09-12T19:46:18.883Z,102002.56
2018-09-12T19:48:47.481Z,102002.42
2018-09-12T19:51:17.162Z,102002.80
2018-09-12T19:53:46.173Z,102000.27
2018-09-12T19:56:15.477Z,101997.80
2018-09-12T19:58:44.932Z,102005.05
2018-09-12T20:01:13.550Z,102004.77
2018-09-12T20:03:42.147Z,102003.42
2018-09-12T20:06:10.730Z,102001.97
2018-09-12T20:08:39.324Z,102000.13
2018-09-12T20:11:08.044Z,102002.94
2018-09-12T20:13:36.668Z,101999.20
2018-09-12T20:16:05.257Z,102001.31
2018-09-12T20:18:34.222Z,101998.80
2018-09-12T20:21:02.845Z,101996.97
2018-09-12T20:23:31.456Z,102004.09
2018-09-12T20:26:00.064Z,102006.16
2018-09-12T20:28:28.704Z,102008.49
2018-09-12T20:30:57.274Z,102016.25
2018-09-12T20:33:26.189Z,102017.88
2018-09-12T20:35:54.786Z,102012.25
2018-09-12T20:38:23.364Z,102005.63
2018-09-12T20:40:51.923Z,102004.66
2018-09-12T20:43:20.492Z,102010.14
2018-09-12T20:45:49.057Z,102012.36
2018-09-12T20:48:17.663Z,102009.14
2018-09-12T20:50:46.231Z,102005.93
2018-09-12T20:53:14.803Z,102009.20
2018-09-12T20:55:43.373Z,102004.88
2018-09-12T20:58:11.922Z,102003.83
2018-09-12T21:00:40.511Z,102006.20
2018-09-12T21:03:09.061Z,102003.98
2018-09-12T21:05:37.649Z,102006.41
2018-09-12T21:08:06.228Z,102008.79
2018-09-12T21:10:34.800Z,102010.73
2018-09-12T21:13:03.353Z,102008.20
2018-09-12T21:15:31.940Z,102014.73
2018-09-12T21:18:00.575Z,102019.53
2018-09-12T21:20:29.160Z,102018.86
2018-09-12T21:22:57.729Z,102025.91
2018-09-12T21:25:26.311Z,102024.22
2018-09-12T21:27:54.889Z,102026.97
2018-09-12T21:30:23.481Z,102019.95
2018-09-12T21:32:52.037Z,102022.42
2018-09-12T21:35:20.614Z,102023.16
2018-09-12T21:37:49.180Z,102034.49
2018-09-12T21:40:17.760Z,102033.49
2018-09-12T21:42:46.306Z,102039.17
2018-09-12T21:45:14.916Z,102037.00
2018-09-12T21:47:43.456Z,102045.62
2018-09-12T21:50:12.033Z,102047.21
2018-09-12T21:52:40.600Z,102049.47
2018-09-12T21:55:09.199Z,102045.03
2018-09-12T21:57:37.765Z,102049.47
2018-09-12T22:00:06.765Z,102048.30
2018-09-12T22:02:35.376Z,102042.94
2018-09-12T22:05:03.969Z,102044.84
2018-09-12T22:07:32.517Z,102044.51
2018-09-12T22:10:01.116Z,102042.62
2018-09-12T22:12:29.651Z,102042.30
2018-09-12T22:14:58.324Z,102038.70
2018-09-12T22:17:26.874Z,102039.92
2018-09-12T22:19:55.450Z,102045.39
2018-09-12T22:22:24.045Z,102047.45
2018-09-12T22:24:52.625Z,102038.62
2018-09-12T22:27:21.185Z,102046.16
2018-09-12T22:29:49.795Z,102042.22
2018-09-12T22:32:18.377Z,102038.80
2018-09-12T22:34:46.967Z,102035.90
2018-09-12T22:37:15.525Z,102040.85
2018-09-12T22:39:44.117Z,102035.90
2018-09-12T22:42:12.684Z,102032.80
2018-09-12T22:44:41.257Z,102038.28
2018-09-12T22:47:09.863Z,102037.95
2018-09-12T22:49:38.440Z,102044.80
2018-09-12T22:52:07.201Z,102042.74
2018-09-12T22:54:35.773Z,102041.89
2018-09-12T22:57:04.381Z,102042.86
2018-09-12T22:59:32.952Z,102042.38
2018-09-12T23:02:01.570Z,102036.41
2018-09-12T23:04:30.137Z,102034.70
2018-09-12T23:06:58.734Z,102039.72
2018-09-12T23:09:27.309Z,102039.92
2018-09-12T23:11:55.912Z,102039.56
2018-09-12T23:14:24.484Z,102032.23
2018-09-12T23:16:53.131Z,102031.26
2018-09-12T23:19:21.660Z,102035.89
2018-09-12T23:21:50.331Z,102034.03
2018-09-12T23:24:18.904Z,102033.87
2018-09-12T23:26:47.481Z,102044.63
2018-09-12T23:29:16.197Z,102044.27
2018-09-12T23:31:44.796Z,102041.84
2018-09-12T23:34:13.348Z,102039.80
2018-09-12T23:36:41.932Z,102033.11
2018-09-12T23:39:12.532Z,102033.64
2018-09-12T23:41:41.570Z,102027.84
2018-09-12T23:44:10.750Z,102033.64
2018-09-12T23:46:39.457Z,102036.73
2018-09-12T23:49:09.014Z,102036.73
2018-09-12T23:51:37.928Z,102034.84
2018-09-12T23:54:06.808Z,102033.99
2018-09-12T23:56:35.450Z,102031.42
2018-09-12T23:59:04.041Z,102021.71
